createdAt,value
2017-03-12T00:00:34.469Z,1012.18
2017-03-12T00:01:34.448Z,1012.21
2017-03-12T00:02:34.437Z,1012.17
2017-03-12T00:03:34.408Z,1012.17
2017-03-12T00:04:34.384Z,1012.18
2017-03-12T00:05:34.367Z,1012.13
2017-03-12T00:06:34.345Z,1012.11
2017-03-12T00:07:34.320Z,1012.17
2017-03-12T00:08:34.301Z,1012.15
2017-03-12T00:09:34.284Z,1012.13
2017-03-12T00:10:34.259Z,1012.11
2017-03-12T00:11:34.238Z,1012.13
2017-03-12T00:12:34.218Z,1012.13
2017-03-12T00:13:34.194Z,1012.11
2017-03-12T00:14:34.179Z,1012.08
2017-03-12T00:15:34.151Z,1012.09
2017-03-12T00:16:34.131Z,1012.09
2017-03-12T00:17:34.111Z,1012.09
2017-03-12T00:18:34.088Z,1012.08
2017-03-12T00:19:34.067Z,1012.07
2017-03-12T00:20:34.050Z,1012.04
2017-03-12T00:21:34.049Z,1012.02
2017-03-12T00:22:34.018Z,1012
2017-03-12T00:23:33.988Z,1012.01
2017-03-12T00:24:33.967Z,1012.03
2017-03-12T00:25:33.947Z,1012
2017-03-12T00:26:33.922Z,1011.96
2017-03-12T00:27:33.898Z,1011.96
2017-03-12T00:28:33.878Z,1011.92
2017-03-12T00:29:33.856Z,1011.92
2017-03-12T00:30:33.834Z,1011.91
2017-03-12T00:31:33.815Z,1011.88
2017-03-12T00:32:33.791Z,1011.84
2017-03-12T00:33:33.783Z,1011.85
2017-03-12T00:34:33.749Z,1011.81
2017-03-12T00:35:33.732Z,1011.81
2017-03-12T00:36:33.711Z,1011.82
2017-03-12T00:37:33.690Z,1011.82
2017-03-12T00:38:33.672Z,1011.81
2017-03-12T00:39:33.646Z,1011.8
2017-03-12T00:40:33.624Z,1011.77
2017-03-12T00:41:33.604Z,1011.8
2017-03-12T00:42:33.584Z,1011.81
2017-03-12T00:43:33.560Z,1011.82
2017-03-12T00:44:33.539Z,1011.77
2017-03-12T00:45:33.522Z,1011.82
2017-03-12T00:46:33.500Z,1011.81
2017-03-12T00:47:33.483Z,1011.81
2017-03-12T00:48:33.502Z,1011.78
2017-03-12T00:49:33.432Z,1011.78
2017-03-12T00:50:33.414Z,1011.74
2017-03-12T00:51:33.389Z,1011.74
2017-03-12T00:52:33.372Z,1011.75
2017-03-12T00:53:33.350Z,1011.74
2017-03-12T00:54:33.381Z,1011.74
2017-03-12T00:55:33.312Z,1011.74
2017-03-12T00:56:33.290Z,1011.75
2017-03-12T00:57:33.263Z,1011.73
2017-03-12T00:58:33.242Z,1011.7
2017-03-12T00:59:33.233Z,1011.7
2017-03-12T01:00:33.198Z,1011.71
2017-03-12T01:01:33.177Z,1011.7
2017-03-12T01:02:33.202Z,1011.72
2017-03-12T01:03:33.134Z,1011.7
2017-03-12T01:04:33.115Z,1011.66
2017-03-12T01:05:33.091Z,1011.71
2017-03-12T01:06:33.075Z,1011.71
2017-03-12T01:07:33.046Z,1011.71
2017-03-12T01:08:33.026Z,1011.7
2017-03-12T01:09:32.999Z,1011.71
2017-03-12T01:10:32.982Z,1011.72
2017-03-12T01:11:32.962Z,1011.71
2017-03-12T01:12:32.991Z,1011.7
2017-03-12T01:13:32.915Z,1011.68
2017-03-12T01:14:32.901Z,1011.67
2017-03-12T01:15:32.873Z,1011.65
2017-03-12T01:16:32.853Z,1011.68
2017-03-12T01:17:32.837Z,1011.67
2017-03-12T01:18:32.935Z,1011.66
2017-03-12T01:19:32.787Z,1011.63
2017-03-12T01:20:32.768Z,1011.62
2017-03-12T01:21:32.741Z,1011.61
2017-03-12T01:22:32.726Z,1011.59
2017-03-12T01:23:32.703Z,1011.6
2017-03-12T01:24:32.726Z,1011.56
2017-03-12T01:25:32.656Z,1011.57
2017-03-12T01:26:32.736Z,1011.54
2017-03-12T01:27:32.613Z,1011.54
2017-03-12T01:28:32.595Z,1011.49
2017-03-12T01:29:32.569Z,1011.49
2017-03-12T01:30:32.597Z,1011.47
2017-03-12T01:31:32.529Z,1011.46
2017-03-12T01:32:32.528Z,1011.46
2017-03-12T01:33:32.482Z,1011.48
2017-03-12T01:34:32.458Z,1011.46
2017-03-12T01:35:32.440Z,1011.51
2017-03-12T01:36:32.415Z,1011.46
2017-03-12T01:37:32.397Z,1011.46
2017-03-12T01:38:32.371Z,1011.44
2017-03-12T01:39:32.347Z,1011.48
2017-03-12T01:40:32.330Z,1011.45
2017-03-12T01:41:32.309Z,1011.42
2017-03-12T01:42:32.285Z,1011.44
2017-03-12T01:43:32.261Z,1011.4
2017-03-12T01:44:32.243Z,1011.39
2017-03-12T01:45:32.220Z,1011.42
2017-03-12T01:46:32.197Z,1011.37
2017-03-12T01:47:32.202Z,1011.39
2017-03-12T01:48:32.151Z,1011.41
2017-03-12T01:49:32.132Z,1011.38
2017-03-12T01:50:32.109Z,1011.41
2017-03-12T01:51:32.087Z,1011.39
2017-03-12T01:52:32.069Z,1011.39
2017-03-12T01:53:32.048Z,1011.42
2017-03-12T01:54:32.019Z,1011.38
2017-03-12T01:55:31.997Z,1011.4
2017-03-12T01:56:31.977Z,1011.39
2017-03-12T01:57:31.957Z,1011.39
2017-03-12T01:58:31.933Z,1011.38
2017-03-12T01:59:31.912Z,1011.38
2017-03-12T02:00:31.885Z,1011.37
2017-03-12T02:01:31.865Z,1011.42
2017-03-12T02:02:31.845Z,1011.38
2017-03-12T02:03:31.830Z,1011.41
2017-03-12T02:04:31.805Z,1011.38
2017-03-12T02:05:31.784Z,1011.34
2017-03-12T02:06:31.755Z,1011.35
2017-03-12T02:07:31.735Z,1011.32
2017-03-12T02:08:31.712Z,1011.33
2017-03-12T02:09:31.692Z,1011.32
2017-03-12T02:10:31.672Z,1011.32
2017-03-12T02:11:31.646Z,1011.33
2017-03-12T02:12:31.620Z,1011.3
2017-03-12T02:13:31.600Z,1011.31
2017-03-12T02:14:31.579Z,1011.29
2017-03-12T02:15:31.559Z,1011.31
2017-03-12T02:16:31.536Z,1011.28
2017-03-12T02:17:31.518Z,1011.26
2017-03-12T02:18:31.496Z,1011.23
2017-03-12T02:19:31.469Z,1011.26
2017-03-12T02:20:31.444Z,1011.24
2017-03-12T02:21:31.425Z,1011.26
2017-03-12T02:22:31.402Z,1011.23
2017-03-12T02:23:31.381Z,1011.19
2017-03-12T02:24:31.364Z,1011.18
2017-03-12T02:25:31.336Z,1011.15
2017-03-12T02:26:31.314Z,1011.15
2017-03-12T02:27:31.293Z,1011.14
2017-03-12T02:28:31.266Z,1011.12
2017-03-12T02:29:31.250Z,1011.1
2017-03-12T02:30:31.230Z,1011.11
2017-03-12T02:31:31.203Z,1011.1
2017-03-12T02:32:31.180Z,1011.1
2017-03-12T02:33:31.157Z,1011.11
2017-03-12T02:34:31.139Z,1011.08
2017-03-12T02:35:31.123Z,1011.13
2017-03-12T02:36:31.091Z,1011.1
2017-03-12T02:37:31.077Z,1011.13
2017-03-12T02:38:31.046Z,1011.13
2017-03-12T02:39:31.029Z,1011.17
2017-03-12T02:40:31.003Z,1011.14
2017-03-12T02:41:30.992Z,1011.2
2017-03-12T02:42:30.965Z,1011.21
2017-03-12T02:43:30.936Z,1011.2
2017-03-12T02:44:30.923Z,1011.19
2017-03-12T02:45:30.893Z,1011.24
2017-03-12T02:46:30.871Z,1011.23
2017-03-12T02:47:30.848Z,1011.22
2017-03-12T02:48:30.824Z,1011.21
2017-03-12T02:49:30.807Z,1011.22
2017-03-12T02:50:30.779Z,1011.23
2017-03-12T02:51:30.760Z,1011.21
2017-03-12T02:52:30.736Z,1011.21
2017-03-12T02:53:30.712Z,1011.22
2017-03-12T02:54:30.698Z,1011.23
2017-03-12T02:55:30.678Z,1011.24
2017-03-12T02:56:30.646Z,1011.21
2017-03-12T02:57:30.627Z,1011.24
2017-03-12T02:58:30.607Z,1011.24
2017-03-12T02:59:30.583Z,1011.24
2017-03-12T03:00:30.565Z,1011.21
2017-03-12T03:01:30.544Z,1011.22
2017-03-12T03:02:30.514Z,1011.19
2017-03-12T03:03:30.491Z,1011.21
2017-03-12T03:04:30.469Z,1011.21
2017-03-12T03:05:30.453Z,1011.21
2017-03-12T03:06:30.427Z,1011.22
2017-03-12T03:07:30.403Z,1011.2
2017-03-12T03:08:30.381Z,1011.19
2017-03-12T03:09:30.360Z,1011.17
2017-03-12T03:10:30.335Z,1011.23
2017-03-12T03:11:30.319Z,1011.25
2017-03-12T03:12:30.293Z,1011.18
2017-03-12T03:13:30.267Z,1011.19
2017-03-12T03:14:30.245Z,1011.16
2017-03-12T03:15:30.227Z,1011.15
2017-03-12T03:16:30.202Z,1011.17
2017-03-12T03:17:30.184Z,1011.12
2017-03-12T03:18:30.156Z,1011.15
2017-03-12T03:19:30.137Z,1011.15
2017-03-12T03:20:30.125Z,1011.16
2017-03-12T03:21:30.094Z,1011.2
2017-03-12T03:22:30.069Z,1011.25
2017-03-12T03:23:30.044Z,1011.26
2017-03-12T03:24:30.021Z,1011.25
2017-03-12T03:25:30.000Z,1011.23
2017-03-12T03:26:29.981Z,1011.2
2017-03-12T03:27:29.953Z,1011.22
2017-03-12T03:28:29.930Z,1011.22
2017-03-12T03:29:29.910Z,1011.2
2017-03-12T03:30:29.888Z,1011.22
2017-03-12T03:31:29.867Z,1011.23
2017-03-12T03:32:29.849Z,1011.2
2017-03-12T03:33:29.817Z,1011.15
2017-03-12T03:34:29.797Z,1011.15
2017-03-12T03:35:29.776Z,1011.09
2017-03-12T03:36:29.758Z,1011.14
2017-03-12T03:37:29.730Z,1011.11
2017-03-12T03:38:29.711Z,1011.11
2017-03-12T03:39:29.683Z,1011.1
2017-03-12T03:40:29.661Z,1011.11
2017-03-12T03:41:29.638Z,1011.08
2017-03-12T03:42:29.619Z,1011.07
2017-03-12T03:43:29.604Z,1011.07
2017-03-12T03:44:29.571Z,1011.03
2017-03-12T03:45:29.550Z,1011.03
2017-03-12T03:46:29.531Z,1011.06
2017-03-12T03:47:29.511Z,1011.04
2017-03-12T03:48:29.480Z,1011.03
2017-03-12T03:49:29.459Z,1011.06
2017-03-12T03:50:29.439Z,1011.05
2017-03-12T03:51:29.514Z,1011.05
2017-03-12T03:52:29.387Z,1011.04
2017-03-12T03:53:29.417Z,1011.02
2017-03-12T03:54:29.348Z,1011.01
2017-03-12T03:55:29.376Z,1011
2017-03-12T03:56:29.306Z,1011.01
2017-03-12T03:57:29.283Z,1011.03
2017-03-12T03:58:29.254Z,1011.01
2017-03-12T03:59:29.282Z,1011.04
2017-03-12T04:00:29.214Z,1011.02
2017-03-12T04:01:29.241Z,1011.02
2017-03-12T04:02:29.163Z,1010.99
2017-03-12T04:03:29.140Z,1011.05
2017-03-12T04:04:29.122Z,1011.04
2017-03-12T04:05:29.106Z,1011
2017-03-12T04:06:29.070Z,1011.01
2017-03-12T04:07:29.146Z,1011.03
2017-03-12T04:08:29.028Z,1011.06
2017-03-12T04:09:29.006Z,1011.08
2017-03-12T04:10:28.988Z,1011.02
2017-03-12T04:11:28.960Z,1011.05
2017-03-12T04:12:28.937Z,1011.03
2017-03-12T04:13:28.918Z,1011.02
2017-03-12T04:14:28.896Z,1011.03
2017-03-12T04:15:28.871Z,1011.03
2017-03-12T04:16:28.844Z,1011.02
2017-03-12T04:17:28.953Z,1011.05
2017-03-12T04:18:28.804Z,1011.05
2017-03-12T04:19:28.779Z,1011.05
2017-03-12T04:20:28.751Z,1011.06
2017-03-12T04:21:28.733Z,1011
2017-03-12T04:22:28.717Z,1011.03
2017-03-12T04:23:28.690Z,1011.06
2017-03-12T04:24:28.660Z,1011.04
2017-03-12T04:25:28.640Z,1011.06
2017-03-12T04:26:28.620Z,1011
2017-03-12T04:27:28.595Z,1011.01
2017-03-12T04:28:28.571Z,1010.98
2017-03-12T04:29:28.550Z,1011
2017-03-12T04:30:28.528Z,1010.97
2017-03-12T04:31:28.501Z,1011.03
2017-03-12T04:32:28.476Z,1011
2017-03-12T04:33:28.456Z,1010.99
2017-03-12T04:34:28.435Z,1010.99
2017-03-12T04:35:28.414Z,1010.98
2017-03-12T04:36:28.395Z,1010.96
2017-03-12T04:37:28.364Z,1010.94
2017-03-12T04:38:28.340Z,1010.93
2017-03-12T04:39:28.314Z,1010.91
2017-03-12T04:40:28.301Z,1010.92
2017-03-12T04:41:28.271Z,1010.86
2017-03-12T04:42:28.245Z,1010.9
2017-03-12T04:43:28.230Z,1010.9
2017-03-12T04:44:28.204Z,1010.84
2017-03-12T04:45:28.180Z,1010.82
2017-03-12T04:46:28.159Z,1010.82
2017-03-12T04:47:28.134Z,1010.78
2017-03-12T04:48:28.113Z,1010.79
2017-03-12T04:49:28.087Z,1010.77
2017-03-12T04:50:28.066Z,1010.77
2017-03-12T04:51:28.039Z,1010.77
2017-03-12T04:52:28.016Z,1010.74
2017-03-12T04:53:27.995Z,1010.72
2017-03-12T04:54:27.970Z,1010.74
2017-03-12T04:55:27.955Z,1010.75
2017-03-12T04:56:27.931Z,1010.72
2017-03-12T04:57:27.902Z,1010.73
2017-03-12T04:58:27.882Z,1010.74
2017-03-12T04:59:27.855Z,1010.73
2017-03-12T05:00:27.830Z,1010.72
2017-03-12T05:01:27.812Z,1010.7
2017-03-12T05:02:27.790Z,1010.72
2017-03-12T05:03:27.764Z,1010.7
2017-03-12T05:04:27.749Z,1010.66
2017-03-12T05:05:27.718Z,1010.66
2017-03-12T05:06:27.695Z,1010.61
2017-03-12T05:07:27.670Z,1010.62
2017-03-12T05:08:27.645Z,1010.63
2017-03-12T05:09:27.625Z,1010.64
2017-03-12T05:10:27.599Z,1010.65
2017-03-12T05:11:27.575Z,1010.65
2017-03-12T05:12:27.551Z,1010.66
2017-03-12T05:13:27.528Z,1010.66
2017-03-12T05:14:27.505Z,1010.69
2017-03-12T05:15:27.484Z,1010.65
2017-03-12T05:16:27.465Z,1010.69
2017-03-12T05:17:27.441Z,1010.68
2017-03-12T05:18:27.413Z,1010.66
2017-03-12T05:19:27.389Z,1010.7
2017-03-12T05:20:27.371Z,1010.68
2017-03-12T05:21:27.345Z,1010.69
2017-03-12T05:22:27.320Z,1010.71
2017-03-12T05:23:27.299Z,1010.69
2017-03-12T05:24:27.275Z,1010.71
2017-03-12T05:25:27.257Z,1010.72
2017-03-12T05:26:27.225Z,1010.66
2017-03-12T05:27:27.204Z,1010.69
2017-03-12T05:28:27.180Z,1010.71
2017-03-12T05:29:27.161Z,1010.71
2017-03-12T05:30:27.132Z,1010.63
2017-03-12T05:31:27.115Z,1010.66
2017-03-12T05:32:27.097Z,1010.65
2017-03-12T05:33:27.065Z,1010.6
2017-03-12T05:34:27.044Z,1010.62
2017-03-12T05:35:27.023Z,1010.6
2017-03-12T05:36:26.993Z,1010.56
2017-03-12T05:37:26.972Z,1010.61
2017-03-12T05:38:26.951Z,1010.65
2017-03-12T05:39:26.931Z,1010.66
2017-03-12T05:40:26.933Z,1010.59
2017-03-12T05:41:26.879Z,1010.6
2017-03-12T05:42:26.860Z,1010.6
2017-03-12T05:43:26.829Z,1010.59
2017-03-12T05:44:26.804Z,1010.62
2017-03-12T05:45:26.784Z,1010.61
2017-03-12T05:46:26.759Z,1010.68
2017-03-12T05:47:26.739Z,1010.65
2017-03-12T05:48:26.715Z,1010.67
2017-03-12T05:49:26.690Z,1010.67
2017-03-12T05:50:26.665Z,1010.67
2017-03-12T05:51:26.642Z,1010.67
2017-03-12T05:52:26.625Z,1010.67
2017-03-12T05:53:26.594Z,1010.65
2017-03-12T05:54:26.574Z,1010.63
2017-03-12T05:55:26.553Z,1010.65
2017-03-12T05:56:26.524Z,1010.58
2017-03-12T05:57:26.502Z,1010.61
2017-03-12T05:58:26.481Z,1010.59
2017-03-12T05:59:26.460Z,1010.6
2017-03-12T06:00:26.430Z,1010.59
2017-03-12T06:01:26.411Z,1010.59
2017-03-12T06:02:26.385Z,1010.57
2017-03-12T06:03:26.359Z,1010.61
2017-03-12T06:04:26.339Z,1010.61
2017-03-12T06:05:26.317Z,1010.61
2017-03-12T06:06:26.295Z,1010.59
2017-03-12T06:07:26.265Z,1010.58
2017-03-12T06:08:26.244Z,1010.55
2017-03-12T06:09:26.223Z,1010.56
2017-03-12T06:10:26.195Z,1010.58
2017-03-12T06:11:26.174Z,1010.59
2017-03-12T06:12:26.155Z,1010.55
2017-03-12T06:13:26.123Z,1010.58
2017-03-12T06:14:26.104Z,1010.55
2017-03-12T06:15:26.082Z,1010.57
2017-03-12T06:16:26.056Z,1010.56
2017-03-12T06:17:26.031Z,1010.57
2017-03-12T06:18:26.013Z,1010.54
2017-03-12T06:19:25.991Z,1010.59
2017-03-12T06:20:25.968Z,1010.58
2017-03-12T06:21:25.938Z,1010.52
2017-03-12T06:22:25.919Z,1010.55
2017-03-12T06:23:25.898Z,1010.62
2017-03-12T06:24:25.868Z,1010.58
2017-03-12T06:25:25.847Z,1010.63
2017-03-12T06:26:25.820Z,1010.55
2017-03-12T06:27:25.801Z,1010.59
2017-03-12T06:28:25.773Z,1010.55
2017-03-12T06:29:25.753Z,1010.56
2017-03-12T06:30:25.731Z,1010.59
2017-03-12T06:31:25.703Z,1010.58
2017-03-12T06:32:25.685Z,1010.61
2017-03-12T06:33:25.660Z,1010.59
2017-03-12T06:34:25.643Z,1010.61
2017-03-12T06:35:25.612Z,1010.61
2017-03-12T06:36:25.591Z,1010.55
2017-03-12T06:37:25.571Z,1010.59
2017-03-12T06:38:25.545Z,1010.57
2017-03-12T06:39:25.521Z,1010.56
2017-03-12T06:40:25.498Z,1010.58
2017-03-12T06:41:25.476Z,1010.59
2017-03-12T06:42:25.455Z,1010.57
2017-03-12T06:43:25.424Z,1010.62
2017-03-12T06:44:25.406Z,1010.63
2017-03-12T06:45:25.384Z,1010.61
2017-03-12T06:46:25.366Z,1010.65
2017-03-12T06:47:25.335Z,1010.65
2017-03-12T06:48:25.311Z,1010.7
2017-03-12T06:49:25.295Z,1010.68
2017-03-12T06:50:25.266Z,1010.74
2017-03-12T06:51:25.249Z,1010.73
2017-03-12T06:52:25.224Z,1010.75
2017-03-12T06:53:25.202Z,1010.79
2017-03-12T06:54:25.177Z,1010.78
2017-03-12T06:55:25.160Z,1010.73
2017-03-12T06:56:25.144Z,1010.81
2017-03-12T06:57:25.111Z,1010.76
2017-03-12T06:58:25.091Z,1010.72
2017-03-12T06:59:25.070Z,1010.78
2017-03-12T07:00:25.046Z,1010.78
2017-03-12T07:01:25.028Z,1010.75
2017-03-12T07:02:25.006Z,1010.78
2017-03-12T07:03:24.987Z,1010.77
2017-03-12T07:04:24.960Z,1010.75
2017-03-12T07:05:24.946Z,1010.81
2017-03-12T07:06:24.919Z,1010.76
2017-03-12T07:07:24.905Z,1010.84
2017-03-12T07:08:24.879Z,1010.8
2017-03-12T07:09:24.862Z,1010.81
2017-03-12T07:10:24.836Z,1010.85
2017-03-12T07:11:24.823Z,1010.84
2017-03-12T07:12:24.802Z,1010.82
2017-03-12T07:13:24.782Z,1010.85
2017-03-12T07:14:24.759Z,1010.9
2017-03-12T07:15:24.741Z,1010.87
2017-03-12T07:16:24.719Z,1010.89
2017-03-12T07:17:24.705Z,1010.87
2017-03-12T07:18:24.679Z,1010.86
2017-03-12T07:19:24.667Z,1010.88
2017-03-12T07:20:24.676Z,1010.92
2017-03-12T07:21:24.627Z,1010.91
2017-03-12T07:22:24.604Z,1010.91
2017-03-12T07:23:24.586Z,1010.93
2017-03-12T07:24:24.569Z,1010.98
2017-03-12T07:25:24.553Z,1010.96
2017-03-12T07:26:24.530Z,1011.02
2017-03-12T07:27:24.514Z,1011
2017-03-12T07:28:24.494Z,1011.01
2017-03-12T07:29:24.475Z,1011.02
2017-03-12T07:30:24.465Z,1011.05
2017-03-12T07:31:24.447Z,1011.09
2017-03-12T07:32:24.422Z,1011.06
2017-03-12T07:33:24.404Z,1011.06
2017-03-12T07:34:24.396Z,1011.1
2017-03-12T07:35:24.381Z,1011.11
2017-03-12T07:36:24.350Z,1011.12
2017-03-12T07:37:24.331Z,1011.1
2017-03-12T07:38:24.313Z,1011.15
2017-03-12T07:39:24.296Z,1011.19
2017-03-12T07:40:24.279Z,1011.18
2017-03-12T07:41:24.268Z,1011.17
2017-03-12T07:42:24.242Z,1011.16
2017-03-12T07:43:24.227Z,1011.14
2017-03-12T07:44:24.217Z,1011.15
2017-03-12T07:45:24.194Z,1011.1
2017-03-12T07:46:24.183Z,1011.13
2017-03-12T07:47:24.162Z,1011.12
2017-03-12T07:48:24.143Z,1011.12
2017-03-12T07:49:24.132Z,1011.14
2017-03-12T07:50:24.111Z,1011.16
2017-03-12T07:51:24.151Z,1011.18
2017-03-12T07:52:24.081Z,1011.09
2017-03-12T07:53:24.063Z,1011.16
2017-03-12T07:54:24.050Z,1011.11
2017-03-12T07:55:24.041Z,1011.13
2017-03-12T07:56:24.020Z,1011.14
2017-03-12T07:57:23.999Z,1011.12
2017-03-12T07:58:23.988Z,1011.14
2017-03-12T07:59:23.970Z,1011.15
2017-03-12T08:00:23.958Z,1011.16
2017-03-12T08:01:23.943Z,1011.2
2017-03-12T08:02:23.936Z,1011.22
2017-03-12T08:03:23.912Z,1011.22
2017-03-12T08:04:23.903Z,1011.22
2017-03-12T08:05:23.895Z,1011.21
2017-03-12T08:06:23.874Z,1011.19
2017-03-12T08:07:23.861Z,1011.13
2017-03-12T08:08:23.847Z,1011.15
2017-03-12T08:09:23.841Z,1011.17
2017-03-12T08:10:23.817Z,1011.16
2017-03-12T08:11:23.804Z,1011.15
2017-03-12T08:12:23.791Z,1011.16
2017-03-12T08:13:23.783Z,1011.22
2017-03-12T08:14:23.767Z,1011.23
2017-03-12T08:15:23.753Z,1011.25
2017-03-12T08:16:23.741Z,1011.27
2017-03-12T08:17:23.729Z,1011.31
2017-03-12T08:18:23.714Z,1011.3
2017-03-12T08:19:23.708Z,1011.31
2017-03-12T08:20:23.692Z,1011.27
2017-03-12T08:21:23.678Z,1011.29
2017-03-12T08:22:23.666Z,1011.25
2017-03-12T08:23:23.655Z,1011.28
2017-03-12T08:24:23.720Z,1011.28
2017-03-12T08:25:23.634Z,1011.27
2017-03-12T08:26:23.623Z,1011.24
2017-03-12T08:27:23.613Z,1011.18
2017-03-12T08:28:23.604Z,1011.16
2017-03-12T08:29:23.582Z,1011.16
2017-03-12T08:30:23.579Z,1011.11
2017-03-12T08:31:23.555Z,1011.05
2017-03-12T08:32:23.548Z,1011.05
2017-03-12T08:33:23.535Z,1011.03
2017-03-12T08:34:23.531Z,1011.02
2017-03-12T08:35:23.518Z,1010.98
2017-03-12T08:36:23.551Z,1010.99
2017-03-12T08:37:23.489Z,1010.99
2017-03-12T08:38:23.474Z,1011.01
2017-03-12T08:39:23.464Z,1010.99
2017-03-12T08:40:23.456Z,1011.03
2017-03-12T08:41:23.443Z,1010.97
2017-03-12T08:42:23.436Z,1011.01
2017-03-12T08:43:23.417Z,1010.96
2017-03-12T08:44:23.403Z,1010.94
2017-03-12T08:45:23.391Z,1010.94
2017-03-12T08:46:23.379Z,1010.93
2017-03-12T08:47:23.365Z,1010.94
2017-03-12T08:48:23.353Z,1010.92
2017-03-12T08:49:23.341Z,1010.94
2017-03-12T08:50:23.327Z,1010.9
2017-03-12T08:51:23.319Z,1010.9
2017-03-12T08:52:23.303Z,1010.87
2017-03-12T08:53:23.290Z,1010.88
2017-03-12T08:54:23.280Z,1010.84
2017-03-12T08:55:23.270Z,1010.86
2017-03-12T08:56:23.250Z,1010.9
2017-03-12T08:57:23.237Z,1010.9
2017-03-12T08:58:23.225Z,1010.88
2017-03-12T08:59:23.217Z,1010.91
2017-03-12T09:00:23.205Z,1010.87
2017-03-12T09:01:23.194Z,1010.85
2017-03-12T09:02:23.174Z,1010.87
2017-03-12T09:03:23.187Z,1010.84
2017-03-12T09:04:23.154Z,1010.84
2017-03-12T09:05:23.144Z,1010.87
2017-03-12T09:06:23.140Z,1010.89
2017-03-12T09:07:23.125Z,1010.84
2017-03-12T09:08:23.121Z,1010.87
2017-03-12T09:09:23.098Z,1010.95
2017-03-12T09:10:23.090Z,1010.93
2017-03-12T09:11:23.081Z,1010.86
2017-03-12T09:12:23.065Z,1010.96
2017-03-12T09:13:23.055Z,1010.89
2017-03-12T09:14:23.047Z,1010.92
2017-03-12T09:15:23.035Z,1010.97
2017-03-12T09:16:23.026Z,1010.96
2017-03-12T09:17:23.016Z,1010.98
2017-03-12T09:18:23.017Z,1010.96
2017-03-12T09:19:23.001Z,1010.98
2017-03-12T09:20:22.991Z,1010.97
2017-03-12T09:21:22.986Z,1010.92
2017-03-12T09:22:22.970Z,1010.98
2017-03-12T09:23:22.964Z,1010.91
2017-03-12T09:24:22.953Z,1010.91
2017-03-12T09:25:22.973Z,1010.94
2017-03-12T09:26:22.936Z,1010.91
2017-03-12T09:27:23.029Z,1010.89
2017-03-12T09:28:22.917Z,1010.87
2017-03-12T09:29:22.911Z,1010.86
2017-03-12T09:30:22.903Z,1010.85
2017-03-12T09:31:22.946Z,1010.88
2017-03-12T09:32:22.890Z,1010.84
2017-03-12T09:33:22.878Z,1010.87
2017-03-12T09:34:23.101Z,1010.91
2017-03-12T09:35:22.860Z,1010.88
2017-03-12T09:36:22.850Z,1010.86
2017-03-12T09:37:22.843Z,1010.86
2017-03-12T09:38:22.839Z,1010.86
2017-03-12T09:39:22.827Z,1010.91
2017-03-12T09:40:22.819Z,1010.89
2017-03-12T09:41:22.811Z,1010.89
2017-03-12T09:42:22.803Z,1010.85
2017-03-12T09:43:22.796Z,1010.82
2017-03-12T09:44:22.787Z,1010.83
2017-03-12T09:45:22.779Z,1010.85
2017-03-12T09:46:22.773Z,1010.82
2017-03-12T09:47:22.762Z,1010.81
2017-03-12T09:48:22.762Z,1010.86
2017-03-12T09:49:22.750Z,1010.83
2017-03-12T09:50:22.739Z,1010.78
2017-03-12T09:51:22.737Z,1010.8
2017-03-12T09:52:22.726Z,1010.83
2017-03-12T09:53:22.719Z,1010.82
2017-03-12T09:54:22.710Z,1010.82
2017-03-12T09:55:22.703Z,1010.82
2017-03-12T09:56:22.694Z,1010.78
2017-03-12T09:57:22.687Z,1010.81
2017-03-12T09:58:22.679Z,1010.76
2017-03-12T09:59:22.674Z,1010.75
2017-03-12T10:00:22.667Z,1010.74
2017-03-12T10:01:22.659Z,1010.74
2017-03-12T10:02:22.651Z,1010.75
2017-03-12T10:03:22.640Z,1010.71
2017-03-12T10:04:22.633Z,1010.74
2017-03-12T10:05:22.623Z,1010.67
2017-03-12T10:06:22.618Z,1010.65
2017-03-12T10:07:22.605Z,1010.7
2017-03-12T10:08:22.601Z,1010.65
2017-03-12T10:09:22.592Z,1010.63
2017-03-12T10:10:22.587Z,1010.64
2017-03-12T10:11:22.571Z,1010.56
2017-03-12T10:12:22.568Z,1010.63
2017-03-12T10:13:22.556Z,1010.63
2017-03-12T10:14:22.549Z,1010.58
2017-03-12T10:15:22.545Z,1010.56
2017-03-12T10:16:22.537Z,1010.61
2017-03-12T10:17:22.528Z,1010.57
2017-03-12T10:18:22.514Z,1010.61
2017-03-12T10:19:22.509Z,1010.54
2017-03-12T10:20:22.499Z,1010.53
2017-03-12T10:21:22.493Z,1010.54
2017-03-12T10:22:22.484Z,1010.52
2017-03-12T10:23:22.471Z,1010.55
2017-03-12T10:24:22.468Z,1010.55
2017-03-12T10:25:22.451Z,1010.48
2017-03-12T10:26:22.446Z,1010.44
2017-03-12T10:27:22.437Z,1010.44
2017-03-12T10:28:22.425Z,1010.41
2017-03-12T10:29:22.418Z,1010.43
2017-03-12T10:30:22.407Z,1010.39
2017-03-12T10:31:22.401Z,1010.41
2017-03-12T10:32:22.394Z,1010.41
2017-03-12T10:33:22.385Z,1010.44
2017-03-12T10:34:22.372Z,1010.39
2017-03-12T10:35:22.365Z,1010.38
2017-03-12T10:36:22.356Z,1010.41
2017-03-12T10:37:22.344Z,1010.43
2017-03-12T10:38:22.340Z,1010.4
2017-03-12T10:39:22.323Z,1010.35
2017-03-12T10:40:22.314Z,1010.39
2017-03-12T10:41:22.307Z,1010.39
2017-03-12T10:42:22.298Z,1010.35
2017-03-12T10:43:22.290Z,1010.37
2017-03-12T10:44:22.276Z,1010.41
2017-03-12T10:45:22.275Z,1010.37
2017-03-12T10:46:22.259Z,1010.43
2017-03-12T10:47:22.252Z,1010.37
2017-03-12T10:48:22.239Z,1010.35
2017-03-12T10:49:22.230Z,1010.39
2017-03-12T10:50:22.222Z,1010.36
2017-03-12T10:51:22.215Z,1010.31
2017-03-12T10:52:22.203Z,1010.39
2017-03-12T10:53:22.194Z,1010.36
2017-03-12T10:54:22.183Z,1010.32
2017-03-12T10:55:22.177Z,1010.34
2017-03-12T10:56:22.170Z,1010.33
2017-03-12T10:57:22.155Z,1010.31
2017-03-12T10:58:22.144Z,1010.27
2017-03-12T10:59:22.134Z,1010.27
2017-03-12T11:00:22.131Z,1010.26
2017-03-12T11:01:22.115Z,1010.31
2017-03-12T11:02:22.123Z,1010.26
2017-03-12T11:03:22.098Z,1010.31
2017-03-12T11:04:22.082Z,1010.35
2017-03-12T11:05:22.079Z,1010.31
2017-03-12T11:06:22.068Z,1010.29
2017-03-12T11:07:22.054Z,1010.26
2017-03-12T11:08:22.044Z,1010.29
2017-03-12T11:09:22.037Z,1010.24
2017-03-12T11:10:22.024Z,1010.25
2017-03-12T11:11:22.016Z,1010.21
2017-03-12T11:12:22.005Z,1010.29
2017-03-12T11:13:21.986Z,1010.21
2017-03-12T11:14:21.986Z,1010.18
2017-03-12T11:15:21.966Z,1010.22
2017-03-12T11:16:21.961Z,1010.22
2017-03-12T11:17:21.944Z,1010.12
2017-03-12T11:18:21.933Z,1010.12
2017-03-12T11:19:21.917Z,1010.21
2017-03-12T11:20:21.911Z,1010.16
2017-03-12T11:21:21.901Z,1010.23
2017-03-12T11:22:21.893Z,1010.11
2017-03-12T11:23:21.870Z,1010.12
2017-03-12T11:24:21.860Z,1010.16
2017-03-12T11:25:21.847Z,1010.12
2017-03-12T11:26:21.837Z,1010.19
2017-03-12T11:27:21.828Z,1010.13
2017-03-12T11:28:21.814Z,1010.14
2017-03-12T11:29:21.806Z,1010.11
2017-03-12T11:30:21.784Z,1010.05
2017-03-12T11:31:21.774Z,1010
2017-03-12T11:32:21.763Z,1010.09
2017-03-12T11:33:21.751Z,1010.02
2017-03-12T11:34:21.740Z,1010.02
2017-03-12T11:35:21.724Z,1010
2017-03-12T11:36:21.712Z,1009.95
2017-03-12T11:37:21.701Z,1009.93
2017-03-12T11:38:21.691Z,1009.9
2017-03-12T11:39:21.676Z,1009.9
2017-03-12T11:40:21.672Z,1009.92
2017-03-12T11:41:21.652Z,1009.86
2017-03-12T11:42:21.640Z,1009.91
2017-03-12T11:43:21.630Z,1009.87
2017-03-12T11:44:21.620Z,1009.86
2017-03-12T11:45:21.602Z,1009.85
2017-03-12T11:46:21.589Z,1009.78
2017-03-12T11:47:21.573Z,1009.87
2017-03-12T11:48:21.563Z,1009.85
2017-03-12T11:49:21.545Z,1009.81
2017-03-12T11:50:21.537Z,1009.77
2017-03-12T11:51:21.525Z,1009.74
2017-03-12T11:52:21.510Z,1009.77
2017-03-12T11:53:21.495Z,1009.72
2017-03-12T11:54:21.488Z,1009.72
2017-03-12T11:55:21.468Z,1009.74
2017-03-12T11:56:21.570Z,1009.72
2017-03-12T11:57:21.443Z,1009.74
2017-03-12T11:58:21.433Z,1009.69
2017-03-12T11:59:21.417Z,1009.72
2017-03-12T12:00:21.450Z,1009.7
2017-03-12T12:01:21.391Z,1009.71
2017-03-12T12:02:21.390Z,1009.75
2017-03-12T12:03:21.364Z,1009.68
2017-03-12T12:04:21.358Z,1009.68
2017-03-12T12:05:21.339Z,1009.68
2017-03-12T12:06:21.329Z,1009.71
2017-03-12T12:07:21.310Z,1009.66
2017-03-12T12:08:21.303Z,1009.61